createdAt,value
2023-04-16T00:00:03.299Z,43.21
2023-04-16T00:02:31.806Z,43.24
2023-04-16T00:04:59.616Z,43.08
2023-04-16T00:07:27.398Z,43.75
2023-04-16T00:09:55.686Z,42.92
2023-04-16T00:12:23.584Z,43.69
2023-04-16T00:14:51.338Z,43.28
2023-04-16T00:17:18.907Z,43.01
2023-04-16T00:19:46.653Z,42.92
2023-04-16T00:22:14.557Z,42.48
2023-04-16T00:24:42.245Z,43.12
2023-04-16T00:27:09.746Z,42.82
2023-04-16T00:29:37.342Z,42.59
2023-04-16T00:32:05.001Z,42.79
2023-04-16T00:34:32.850Z,42.77
2023-04-16T00:37:00.542Z,42.80
2023-04-16T00:39:28.024Z,43.16
2023-04-16T00:41:55.921Z,42.81
2023-04-16T00:44:23.536Z,43.30
2023-04-16T00:46:51.717Z,42.91
2023-04-16T00:49:19.996Z,43.09
2023-04-16T00:51:48.127Z,42.98
2023-04-16T00:54:15.618Z,42.52
2023-04-16T00:56:43.187Z,42.65
2023-04-16T00:59:11.815Z,43.18
2023-04-16T01:01:39.660Z,43.01
2023-04-16T01:04:07.337Z,42.80
2023-04-16T01:06:35.309Z,43.15
2023-04-16T01:09:03.380Z,43.25
2023-04-16T01:11:31.257Z,43.30
2023-04-16T01:13:58.751Z,43.28
2023-04-16T01:16:26.963Z,43.31
2023-04-16T01:18:54.781Z,43.17
2023-04-16T01:21:22.610Z,43.61
2023-04-16T01:23:49.992Z,43.43
2023-04-16T01:26:17.514Z,43.54
2023-04-16T01:28:45.359Z,43.37
2023-04-16T01:31:13.167Z,43.50
2023-04-16T01:33:41.015Z,43.55
2023-04-16T01:36:08.536Z,43.74
2023-04-16T01:38:36.226Z,43.87
2023-04-16T01:41:03.756Z,43.64
2023-04-16T01:43:31.460Z,43.14
2023-04-16T01:46:13.684Z,43.78
2023-04-16T01:48:41.526Z,43.13
2023-04-16T01:51:10.105Z,43.31
2023-04-16T01:53:38.136Z,43.37
2023-04-16T01:56:06.579Z,43.35
2023-04-16T01:58:34.672Z,42.92
2023-04-16T02:01:02.705Z,43.22
2023-04-16T02:03:31.442Z,43.45
2023-04-16T02:05:59.133Z,43.71
2023-04-16T02:08:26.892Z,43.39
2023-04-16T02:10:54.666Z,43.87
2023-04-16T02:13:23.361Z,43.30
2023-04-16T02:15:51.889Z,43.44
2023-04-16T02:18:19.307Z,43.57
2023-04-16T02:20:49.628Z,43.92
2023-04-16T02:23:17.390Z,43.18
2023-04-16T02:25:46.826Z,43.85
2023-04-16T02:28:16.450Z,43.51
2023-04-16T02:30:44.687Z,43.87
2023-04-16T02:33:12.631Z,44.05
2023-04-16T02:35:40.916Z,44.34
2023-04-16T02:38:08.838Z,44.23
2023-04-16T02:40:36.458Z,44.35
2023-04-16T02:43:03.977Z,44.33
2023-04-16T02:45:31.757Z,44.98
2023-04-16T02:48:00.017Z,44.86
2023-04-16T02:50:27.552Z,44.55
2023-04-16T02:52:55.279Z,44.92
2023-04-16T02:55:22.964Z,44.45
2023-04-16T02:57:52.066Z,44.64
2023-04-16T03:00:19.850Z,44.42
2023-04-16T03:02:47.379Z,44.35
2023-04-16T03:05:14.957Z,44.53
2023-04-16T03:07:42.510Z,44.58
2023-04-16T03:10:11.965Z,44.56
2023-04-16T03:12:39.627Z,44.60
2023-04-16T03:15:07.823Z,45.09
2023-04-16T03:17:35.794Z,44.59
2023-04-16T03:20:04.279Z,44.50
2023-04-16T03:22:31.965Z,44.54
2023-04-16T03:24:59.414Z,44.82
2023-04-16T03:27:27.110Z,44.61
2023-04-16T03:29:55.232Z,45.08
2023-04-16T03:32:22.759Z,45.09
2023-04-16T03:34:50.412Z,44.49
2023-04-16T03:37:17.897Z,45.35
2023-04-16T03:39:45.853Z,45.46
2023-04-16T03:42:19.828Z,45.19
2023-04-16T03:44:47.510Z,45.13
2023-04-16T03:47:15.048Z,44.67
2023-04-16T03:49:42.613Z,44.37
2023-04-16T03:52:11.357Z,44.42
2023-04-16T03:54:39.086Z,44.38
2023-04-16T03:57:06.885Z,44.49
2023-04-16T03:59:34.381Z,44.06
2023-04-16T04:02:01.935Z,43.76
2023-04-16T04:04:29.618Z,44.01
2023-04-16T04:06:57.088Z,44.28
2023-04-16T04:09:24.573Z,44.73
2023-04-16T04:11:52.115Z,44.67
2023-04-16T04:14:19.653Z,44.49
2023-04-16T04:16:47.174Z,44.48
2023-04-16T04:19:14.718Z,44.19
2023-04-16T04:21:42.444Z,43.55
2023-04-16T04:24:10.333Z,43.38
2023-04-16T04:26:37.982Z,43.56
2023-04-16T04:29:05.728Z,43.66
2023-04-16T04:31:33.746Z,43.14
2023-04-16T04:34:01.453Z,42.88
2023-04-16T04:36:29.215Z,43.56
2023-04-16T04:38:57.059Z,43.30
2023-04-16T04:41:26.890Z,43.37
2023-04-16T04:43:54.694Z,43.01
2023-04-16T04:46:22.324Z,42.84
2023-04-16T04:48:49.915Z,43.10
2023-04-16T04:51:17.360Z,42.78
2023-04-16T04:53:44.784Z,42.77
2023-04-16T04:56:13.187Z,42.14
2023-04-16T04:58:41.714Z,42.79
2023-04-16T05:01:09.572Z,42.36
2023-04-16T05:03:37.196Z,42.68
2023-04-16T05:06:04.944Z,42.55
2023-04-16T05:08:33.077Z,42.29
2023-04-16T05:11:01.596Z,42.24
2023-04-16T05:13:29.288Z,42.21
2023-04-16T05:15:56.693Z,42.15
2023-04-16T05:18:24.509Z,41.92
2023-04-16T05:20:52.858Z,41.40
2023-04-16T05:23:20.334Z,41.41
2023-04-16T05:25:48.170Z,40.86
2023-04-16T05:28:15.817Z,40.89
2023-04-16T05:30:43.586Z,40.17
2023-04-16T05:33:11.301Z,39.79
2023-04-16T05:35:43.870Z,39.96
2023-04-16T05:38:11.719Z,39.83
2023-04-16T05:40:39.420Z,40.16
2023-04-16T05:43:06.854Z,39.01
2023-04-16T05:45:39.626Z,39.27
2023-04-16T05:48:11.916Z,39.26
2023-04-16T05:50:40.007Z,39.08
2023-04-16T05:53:09.101Z,38.75
2023-04-16T05:55:39.380Z,38.32
2023-04-16T05:58:06.966Z,38.45
2023-04-16T06:00:34.737Z,38.05
2023-04-16T06:03:03.135Z,38.22
2023-04-16T06:05:30.929Z,37.83
2023-04-16T06:07:58.522Z,38.16
2023-04-16T06:10:26.159Z,38.23
2023-04-16T06:12:53.706Z,38.04
2023-04-16T06:15:21.189Z,37.93
2023-04-16T06:17:49.881Z,37.58
2023-04-16T06:20:17.522Z,37.25
2023-04-16T06:22:45.503Z,36.10
2023-04-16T06:25:13.452Z,37.14
2023-04-16T06:27:41.187Z,35.33
2023-04-16T06:30:13.433Z,34.30
2023-04-16T06:32:42.431Z,33.70
2023-04-16T06:35:10.077Z,32.25
2023-04-16T06:37:37.852Z,31.44
2023-04-16T06:40:06.337Z,31.00
2023-04-16T06:42:33.943Z,31.21
2023-04-16T06:45:01.615Z,25.90
2023-04-16T06:47:30.673Z,22.10
2023-04-16T06:49:58.349Z,20.98
2023-04-16T06:52:26.197Z,19.67
2023-04-16T06:54:54.005Z,19.98
2023-04-16T06:57:21.527Z,22.77
2023-04-16T06:59:49.100Z,24.37
2023-04-16T07:02:16.764Z,23.34
2023-04-16T07:04:44.380Z,20.70
2023-04-16T07:07:11.877Z,19.70
2023-04-16T07:09:39.675Z,19.16
2023-04-16T07:12:08.175Z,19.24
2023-04-16T07:14:35.836Z,19.61
2023-04-16T07:17:04.035Z,21.26
2023-04-16T07:19:32.855Z,22.89
2023-04-16T07:22:00.714Z,21.57
2023-04-16T07:24:28.536Z,19.57
2023-04-16T07:26:56.291Z,19.21
2023-04-16T07:29:23.768Z,18.89
2023-04-16T07:31:51.650Z,17.90
2023-04-16T07:34:19.203Z,16.94
2023-04-16T07:36:46.664Z,17.29
2023-04-16T07:39:14.219Z,17.60
2023-04-16T07:41:42.080Z,17.36
2023-04-16T07:44:09.863Z,18.32
2023-04-16T07:46:46.300Z,17.04
2023-04-16T07:49:15.646Z,17.47
2023-04-16T07:51:43.163Z,17.39
2023-04-16T07:54:11.119Z,17.61
2023-04-16T07:56:38.805Z,17.34
2023-04-16T07:59:20.934Z,17.57
2023-04-16T08:01:53.222Z,17.72
2023-04-16T08:04:25.757Z,17.18
2023-04-16T08:06:54.475Z,17.57
2023-04-16T08:09:23.707Z,18.18
2023-04-16T08:11:51.298Z,17.42
2023-04-16T08:14:19.292Z,18.31
2023-04-16T08:16:47.286Z,18.92
2023-04-16T08:19:15.194Z,20.04
2023-04-16T08:21:43.064Z,22.12
2023-04-16T08:24:10.926Z,24.10
2023-04-16T08:26:38.382Z,26.20
2023-04-16T08:29:06.045Z,26.34
2023-04-16T08:31:34.081Z,27.88
2023-04-16T08:34:01.945Z,28.28
2023-04-16T08:36:29.711Z,28.78
2023-04-16T08:38:57.415Z,29.86
2023-04-16T08:41:26.715Z,30.18
2023-04-16T08:43:56.873Z,30.79
2023-04-16T08:46:26.391Z,31.13
2023-04-16T08:48:58.034Z,31.04
2023-04-16T08:51:29.952Z,31.18
2023-04-16T08:54:03.563Z,31.18
2023-04-16T08:56:32.529Z,31.31
2023-04-16T08:59:05.119Z,31.39
2023-04-16T09:01:33.908Z,31.41
2023-04-16T09:04:03.159Z,31.71
2023-04-16T09:06:33.194Z,31.56
2023-04-16T09:09:04.724Z,31.61
2023-04-16T09:11:33.087Z,31.98
2023-04-16T09:14:01.001Z,32.19
2023-04-16T09:16:34.166Z,31.76
2023-04-16T09:19:01.965Z,31.90
2023-04-16T09:21:30.068Z,32.35
2023-04-16T09:23:57.998Z,32.98
2023-04-16T09:26:27.168Z,33.07
2023-04-16T09:28:55.211Z,32.89
2023-04-16T09:31:22.709Z,32.94
2023-04-16T09:34:07.153Z,31.79
2023-04-16T09:36:35.905Z,30.88
2023-04-16T09:39:03.999Z,30.46
2023-04-16T09:41:35.902Z,30.66
2023-04-16T09:44:05.567Z,31.06
2023-04-16T09:46:36.500Z,30.97
2023-04-16T09:49:13.532Z,31.07
2023-04-16T09:51:42.360Z,31.79
2023-04-16T09:54:10.187Z,31.62
2023-04-16T09:56:46.230Z,31.25
2023-04-16T09:59:21.142Z,32.34
2023-04-16T10:01:50.424Z,31.62
2023-04-16T10:04:18.482Z,31.72
2023-04-16T10:07:06.160Z,31.81
2023-04-16T10:09:40.052Z,33.15
2023-04-16T10:12:07.841Z,33.15
2023-04-16T10:14:35.957Z,32.58
2023-04-16T10:17:04.109Z,32.52
2023-04-16T10:19:32.780Z,32.27
2023-04-16T10:22:01.564Z,32.83
2023-04-16T10:24:31.312Z,33.51
2023-04-16T10:26:59.753Z,33.63
2023-04-16T10:29:28.932Z,33.28
2023-04-16T10:31:57.086Z,33.17
2023-04-16T10:34:25.705Z,32.22
2023-04-16T10:36:54.266Z,32.28
2023-04-16T10:39:24.176Z,33.34
2023-04-16T10:42:07.756Z,31.39
2023-04-16T10:44:36.176Z,31.48
2023-04-16T10:47:11.205Z,31.59
2023-04-16T10:49:39.698Z,31.45
2023-04-16T10:52:12.240Z,32.02
2023-04-16T10:54:41.366Z,32.36
2023-04-16T10:57:10.064Z,32.08
2023-04-16T10:59:39.631Z,32.34
2023-04-16T11:02:09.809Z,32.84
2023-04-16T11:04:39.495Z,32.94
2023-04-16T11:07:17.001Z,32.91
2023-04-16T11:09:56.338Z,31.86
2023-04-16T11:12:29.985Z,31.05
2023-04-16T11:15:07.592Z,31.05
2023-04-16T11:17:39.565Z,31.40
2023-04-16T11:20:19.323Z,32.16
2023-04-16T11:22:49.208Z,32.02
2023-04-16T11:25:27.806Z,31.38
2023-04-16T11:27:57.022Z,32.29
2023-04-16T11:30:38.830Z,32.62
2023-04-16T11:33:09.417Z,32.31
2023-04-16T11:35:39.300Z,32.83
2023-04-16T11:38:07.718Z,32.96
2023-04-16T11:40:36.375Z,32.80
2023-04-16T11:43:13.345Z,32.52
2023-04-16T11:45:56.973Z,32.48
2023-04-16T11:48:25.330Z,32.93
2023-04-16T11:50:58.945Z,33.24
2023-04-16T11:53:27.076Z,33.18
2023-04-16T11:55:54.609Z,33.35
2023-04-16T11:58:23.464Z,33.61
2023-04-16T12:00:53.548Z,33.49
2023-04-16T12:03:44.246Z,33.06
2023-04-16T12:06:12.126Z,33.38
2023-04-16T12:08:39.806Z,33.70
2023-04-16T12:11:07.569Z,33.54
2023-04-16T12:13:40.330Z,33.95
2023-04-16T12:16:18.750Z,34.56
2023-04-16T12:19:01.364Z,34.24
2023-04-16T12:21:46.440Z,34.53
2023-04-16T12:24:23.986Z,33.32
2023-04-16T12:27:03.157Z,33.53
2023-04-16T12:29:31.946Z,33.52
2023-04-16T12:32:00.163Z,33.76
2023-04-16T12:34:48.049Z,34.23
2023-04-16T12:37:15.453Z,34.88
2023-04-16T12:39:43.336Z,34.80
2023-04-16T12:42:12.841Z,35.28
2023-04-16T12:44:40.582Z,35.43
2023-04-16T12:47:08.297Z,35.76
2023-04-16T12:49:36.504Z,34.81
2023-04-16T12:52:04.888Z,35.64
2023-04-16T12:54:32.537Z,35.95
2023-04-16T12:57:00.021Z,36.15
2023-04-16T12:59:27.953Z,36.95
2023-04-16T13:01:55.944Z,37.30
2023-04-16T13:04:25.679Z,38.79
2023-04-16T13:06:53.712Z,39.02
2023-04-16T13:09:21.621Z,39.31
2023-04-16T13:11:49.439Z,39.60
2023-04-16T13:14:17.172Z,39.81
2023-04-16T13:16:44.820Z,40.42
2023-04-16T13:19:12.716Z,39.56
2023-04-16T13:21:41.113Z,40.19
2023-04-16T13:24:08.933Z,40.48
2023-04-16T13:26:36.770Z,40.94
2023-04-16T13:29:04.556Z,40.96
2023-04-16T13:31:32.476Z,41.39
2023-04-16T13:34:00.641Z,41.40
2023-04-16T13:36:30.133Z,42.07
2023-04-16T13:38:58.867Z,43.37
2023-04-16T13:41:26.672Z,43.15
2023-04-16T13:43:55.073Z,43.61
2023-04-16T13:46:22.677Z,43.44
2023-04-16T13:48:50.264Z,43.32
2023-04-16T13:51:18.565Z,42.97
2023-04-16T13:53:46.076Z,43.27
2023-04-16T13:56:13.853Z,42.98
2023-04-16T13:58:41.995Z,43.79
2023-04-16T14:01:10.022Z,43.93
2023-04-16T14:03:39.044Z,43.56
2023-04-16T14:06:06.819Z,44.25
2023-04-16T14:08:34.329Z,44.18
2023-04-16T14:11:02.227Z,43.75
2023-04-16T14:13:29.774Z,43.13
2023-04-16T14:15:57.343Z,42.90
2023-04-16T14:18:24.919Z,43.03
2023-04-16T14:20:53.254Z,43.24
2023-04-16T14:23:21.311Z,43.75
2023-04-16T14:25:49.165Z,43.60
2023-04-16T14:28:17.230Z,43.82
2023-04-16T14:30:45.264Z,44.04
2023-04-16T14:33:13.049Z,43.61
2023-04-16T14:35:41.269Z,43.43
2023-04-16T14:38:09.610Z,43.44
2023-04-16T14:40:37.367Z,43.17
2023-04-16T14:43:05.442Z,43.21
2023-04-16T14:45:33.205Z,43.06
2023-04-16T14:48:00.993Z,43.09
2023-04-16T14:50:28.543Z,42.86
2023-04-16T14:52:56.207Z,43.20
2023-04-16T14:55:23.790Z,43.04
2023-04-16T14:57:51.446Z,42.49
2023-04-16T15:00:19.146Z,43.26
2023-04-16T15:02:48.216Z,43.47
2023-04-16T15:05:16.496Z,43.52
2023-04-16T15:07:44.421Z,43.42
2023-04-16T15:10:12.828Z,43.81
2023-04-16T15:12:41.020Z,43.59
2023-04-16T15:15:09.419Z,43.73
2023-04-16T15:17:37.106Z,43.80
2023-04-16T15:20:08.424Z,44.22
2023-04-16T15:22:36.560Z,44.07
2023-04-16T15:25:06.375Z,43.45
2023-04-16T15:27:34.361Z,42.84
2023-04-16T15:30:02.256Z,40.70
2023-04-16T15:32:31.353Z,40.08
2023-04-16T15:34:59.999Z,39.15
2023-04-16T15:37:27.715Z,39.29
2023-04-16T15:39:55.248Z,39.75
2023-04-16T15:42:24.034Z,39.80
2023-04-16T15:44:51.563Z,39.74
2023-04-16T15:47:19.271Z,40.18
2023-04-16T15:49:47.248Z,40.09
2023-04-16T15:52:15.783Z,40.22
2023-04-16T15:54:43.672Z,40.80
2023-04-16T15:57:11.370Z,41.24
2023-04-16T15:59:39.050Z,41.45
2023-04-16T16:02:08.024Z,41.24
2023-04-16T16:04:37.657Z,42.10
2023-04-16T16:07:05.857Z,43.01
2023-04-16T16:09:33.704Z,42.96
2023-04-16T16:12:01.712Z,43.15
2023-04-16T16:14:29.638Z,43.38
2023-04-16T16:16:57.328Z,43.36
2023-04-16T16:19:25.385Z,44.05
2023-04-16T16:21:53.343Z,44.00
2023-04-16T16:24:21.343Z,44.48
2023-04-16T16:26:49.345Z,44.29
2023-04-16T16:29:16.983Z,44.90
2023-04-16T16:31:44.997Z,45.65
2023-04-16T16:34:19.900Z,46.49
2023-04-16T16:36:49.041Z,46.13
2023-04-16T16:39:16.810Z,46.22
2023-04-16T16:41:45.683Z,46.46
2023-04-16T16:44:13.420Z,46.63
2023-04-16T16:46:41.319Z,46.07
2023-04-16T16:49:10.109Z,46.19
2023-04-16T16:51:37.916Z,46.62
2023-04-16T16:54:07.859Z,46.91
2023-04-16T16:56:35.847Z,47.20
2023-04-16T16:59:04.024Z,47.94
2023-04-16T17:01:32.707Z,48.42
2023-04-16T17:04:01.095Z,48.41
2023-04-16T17:06:29.417Z,48.72
2023-04-16T17:08:57.375Z,49.42
2023-04-16T17:11:27.173Z,49.77
2023-04-16T17:13:55.360Z,49.67
2023-04-16T17:16:23.950Z,49.84
2023-04-16T17:18:51.748Z,50.34
2023-04-16T17:21:19.407Z,50.68
2023-04-16T17:23:47.143Z,51.12
2023-04-16T17:26:15.026Z,51.00
2023-04-16T17:28:43.768Z,51.34
2023-04-16T17:31:12.785Z,51.88
2023-04-16T17:33:41.090Z,51.84
2023-04-16T17:36:09.102Z,52.25
2023-04-16T17:38:37.654Z,52.31
2023-04-16T17:41:05.505Z,52.43
2023-04-16T17:43:33.964Z,52.87
2023-04-16T17:46:01.762Z,52.82
2023-04-16T17:48:29.604Z,53.23
2023-04-16T17:50:57.534Z,53.61
2023-04-16T17:53:25.354Z,53.92
2023-04-16T17:55:55.951Z,54.16
2023-04-16T17:58:26.472Z,54.70
2023-04-16T18:00:53.936Z,54.63
2023-04-16T18:03:22.214Z,55.17
2023-04-16T18:05:50.558Z,54.98
2023-04-16T18:08:18.344Z,55.28
2023-04-16T18:10:46.323Z,55.33
2023-04-16T18:13:14.141Z,55.01
2023-04-16T18:15:42.045Z,55.43
2023-04-16T18:18:10.086Z,55.30
2023-04-16T18:20:37.998Z,55.85
2023-04-16T18:23:05.884Z,55.93
2023-04-16T18:25:35.274Z,56.02
2023-04-16T18:28:04.015Z,56.11
2023-04-16T18:30:32.174Z,56.39
2023-04-16T18:33:30.671Z,56.93
2023-04-16T18:35:47.831Z,56.90
2023-04-16T18:38:16.441Z,56.93
2023-04-16T18:40:44.551Z,57.36
2023-04-16T18:43:14.033Z,57.17
2023-04-16T18:45:41.938Z,57.52
2023-04-16T18:48:10.304Z,57.69
2023-04-16T18:50:38.161Z,58.65
2023-04-16T18:53:06.139Z,58.23
2023-04-16T18:55:33.971Z,58.22
2023-04-16T18:58:02.867Z,58.01
2023-04-16T19:00:31.054Z,57.85
2023-04-16T19:02:59.478Z,58.05
2023-04-16T19:05:27.662Z,58.34
2023-04-16T19:07:55.807Z,58.44
2023-04-16T19:10:23.790Z,58.15
2023-04-16T19:12:59.525Z,58.15
2023-04-16T19:15:30.727Z,58.35
2023-04-16T19:18:00.264Z,58.32
2023-04-16T19:20:29.106Z,58.61
2023-04-16T19:22:56.509Z,58.58
2023-04-16T19:25:27.183Z,59.35
2023-04-16T19:27:56.627Z,59.15
2023-04-16T19:30:24.118Z,59.39
2023-04-16T19:32:55.193Z,59.60
2023-04-16T19:35:23.658Z,60.07
2023-04-16T19:37:51.626Z,60.21
2023-04-16T19:40:19.279Z,60.28
2023-04-16T19:42:47.121Z,60.68
2023-04-16T19:45:15.056Z,60.08
2023-04-16T19:47:43.246Z,60.42
2023-04-16T19:50:11.254Z,61.40
2023-04-16T19:52:39.364Z,60.89
2023-04-16T19:55:08.797Z,59.85
2023-04-16T19:57:36.733Z,56.47
2023-04-16T20:00:09.109Z,54.27
2023-04-16T20:02:38.270Z,53.00
2023-04-16T20:05:06.528Z,51.99
2023-04-16T20:07:34.275Z,50.91
2023-04-16T20:10:03.041Z,50.77
2023-04-16T20:12:31.089Z,50.10
2023-04-16T20:14:58.704Z,49.99
2023-04-16T20:17:26.666Z,50.05
2023-04-16T20:20:00.796Z,49.81
2023-04-16T20:22:28.844Z,49.84
2023-04-16T20:24:56.855Z,49.71
2023-04-16T20:27:24.562Z,49.43
2023-04-16T20:29:53.255Z,49.50
2023-04-16T20:32:22.064Z,49.56
2023-04-16T20:34:50.378Z,49.69
2023-04-16T20:37:18.332Z,49.62
2023-04-16T20:39:46.801Z,50.09
2023-04-16T20:42:14.711Z,49.76
2023-04-16T20:44:42.853Z,49.87
2023-04-16T20:47:15.311Z,50.01
2023-04-16T20:49:46.629Z,50.01
2023-04-16T20:52:15.675Z,50.10
2023-04-16T20:54:43.528Z,50.45
2023-04-16T20:57:11.160Z,51.60
2023-04-16T20:59:39.080Z,50.96
2023-04-16T21:02:06.750Z,50.51
2023-04-16T21:04:34.449Z,51.16
2023-04-16T21:07:04.351Z,50.95
2023-04-16T21:09:32.247Z,51.22
2023-04-16T21:11:59.757Z,51.45
2023-04-16T21:14:27.438Z,51.34
2023-04-16T21:16:54.966Z,51.40
2023-04-16T21:19:22.564Z,51.38
2023-04-16T21:21:50.115Z,51.62
2023-04-16T21:24:17.568Z,51.73
2023-04-16T21:26:45.077Z,51.91
2023-04-16T21:29:12.840Z,52.37
2023-04-16T21:31:40.644Z,52.39
2023-04-16T21:34:08.292Z,52.49
2023-04-16T21:36:35.830Z,52.78
2023-04-16T21:39:03.535Z,53.17
2023-04-16T21:41:31.157Z,54.17
2023-04-16T21:43:58.659Z,54.94
2023-04-16T21:46:27.040Z,55.59
2023-04-16T21:48:55.086Z,56.42
2023-04-16T21:51:29.184Z,57.05
2023-04-16T21:53:57.588Z,57.64
2023-04-16T21:56:25.888Z,57.73
2023-04-16T21:58:53.595Z,58.39
2023-04-16T22:01:21.408Z,59.13
2023-04-16T22:03:51.998Z,59.94
2023-04-16T22:06:20.674Z,60.95
2023-04-16T22:08:50.038Z,61.27
2023-04-16T22:11:18.660Z,61.58
2023-04-16T22:13:47.571Z,62.02
2023-04-16T22:16:15.696Z,62.36
2023-04-16T22:18:43.596Z,62.64
2023-04-16T22:21:11.473Z,63.26
2023-04-16T22:23:39.314Z,63.32
2023-04-16T22:26:07.355Z,63.74
2023-04-16T22:28:35.322Z,63.69
2023-04-16T22:31:03.105Z,64.34
2023-04-16T22:33:31.104Z,64.02
2023-04-16T22:36:00.210Z,63.52
2023-04-16T22:38:27.904Z,63.35
2023-04-16T22:40:55.393Z,63.87
2023-04-16T22:43:23.036Z,63.68
2023-04-16T22:45:50.526Z,63.78
2023-04-16T22:48:18.764Z,64.26
2023-04-16T22:50:48.611Z,64.28
2023-04-16T22:53:17.073Z,64.13
2023-04-16T22:55:44.853Z,64.00
2023-04-16T22:58:12.525Z,64.33
2023-04-16T23:00:40.425Z,64.28
2023-04-16T23:03:08.601Z,64.64
2023-04-16T23:05:36.188Z,64.35
2023-04-16T23:08:04.467Z,64.25
2023-04-16T23:10:32.532Z,64.34
2023-04-16T23:13:00.824Z,64.55
2023-04-16T23:15:28.896Z,64.52
2023-04-16T23:17:56.758Z,64.51
2023-04-16T23:20:24.564Z,64.81
2023-04-16T23:22:52.901Z,64.70
2023-04-16T23:25:22.430Z,64.97
2023-04-16T23:27:50.249Z,64.92
2023-04-16T23:30:18.123Z,64.88
2023-04-16T23:32:46.327Z,64.71
2023-04-16T23:35:20.412Z,64.58
2023-04-16T23:37:48.255Z,64.24
2023-04-16T23:40:16.523Z,64.28
2023-04-16T23:42:44.290Z,64.50
2023-04-16T23:45:12.416Z,64.51
2023-04-16T23:47:40.280Z,64.50
2023-04-16T23:50:08.092Z,64.37
2023-04-16T23:52:35.786Z,64.34
2023-04-16T23:55:03.414Z,64.30
2023-04-16T23:57:31.206Z,63.96
2023-04-16T23:59:58.944Z,63.28
